sensor_id;sensor_type;location;lat;lon;timestamp;P1;durP1;ratioP1;P2;durP2;ratioP2
71351;SDS011;59159;51.652;4.864;2023-01-20T00:00:09;7.20;;;2.80;;
71351;SDS011;59159;51.652;4.864;2023-01-20T00:02:35;6.22;;;2.28;;
71351;SDS011;59159;51.652;4.864;2023-01-20T00:05:01;6.10;;;2.70;;
71351;SDS011;59159;51.652;4.864;2023-01-20T00:07:27;7.10;;;2.90;;
71351;SDS011;59159;51.652;4.864;2023-01-20T00:09:53;6.18;;;2.40;;
71351;SDS011;59159;51.652;4.864;2023-01-20T00:12:19;7.32;;;3.25;;
71351;SDS011;59159;51.652;4.864;2023-01-20T00:14:45;6.77;;;2.77;;
71351;SDS011;59159;51.652;4.864;2023-01-20T00:17:11;7.30;;;2.72;;
71351;SDS011;59159;51.652;4.864;2023-01-20T00:19:37;6.88;;;2.90;;
71351;SDS011;59159;51.652;4.864;2023-01-20T00:22:03;7.23;;;3.10;;
71351;SDS011;59159;51.652;4.864;2023-01-20T00:24:29;8.68;;;3.40;;
71351;SDS011;59159;51.652;4.864;2023-01-20T00:26:55;6.75;;;3.03;;
71351;SDS011;59159;51.652;4.864;2023-01-20T00:29:21;7.97;;;3.53;;
71351;SDS011;59159;51.652;4.864;2023-01-20T00:31:47;9.13;;;3.35;;
71351;SDS011;59159;51.652;4.864;2023-01-20T00:34:13;8.40;;;3.58;;
71351;SDS011;59159;51.652;4.864;2023-01-20T00:36:39;8.43;;;3.33;;
71351;SDS011;59159;51.652;4.864;2023-01-20T00:39:05;7.93;;;3.70;;
71351;SDS011;59159;51.652;4.864;2023-01-20T00:41:31;8.20;;;3.88;;
71351;SDS011;59159;51.652;4.864;2023-01-20T00:43:57;8.35;;;3.80;;
71351;SDS011;59159;51.652;4.864;2023-01-20T00:46:23;8.83;;;3.20;;
71351;SDS011;59159;51.652;4.864;2023-01-20T00:48:49;8.38;;;3.78;;
71351;SDS011;59159;51.652;4.864;2023-01-20T00:51:15;8.52;;;3.83;;
71351;SDS011;59159;51.652;4.864;2023-01-20T00:53:41;8.07;;;3.80;;
71351;SDS011;59159;51.652;4.864;2023-01-20T00:56:07;7.47;;;3.63;;
71351;SDS011;59159;51.652;4.864;2023-01-20T00:58:33;8.00;;;3.47;;
71351;SDS011;59159;51.652;4.864;2023-01-20T01:00:59;9.80;;;3.88;;
71351;SDS011;59159;51.652;4.864;2023-01-20T01:03:25;8.50;;;4.13;;
71351;SDS011;59159;51.652;4.864;2023-01-20T01:05:52;9.73;;;4.57;;
71351;SDS011;59159;51.652;4.864;2023-01-20T01:08:18;9.60;;;4.38;;
71351;SDS011;59159;51.652;4.864;2023-01-20T01:10:44;10.57;;;4.83;;
71351;SDS011;59159;51.652;4.864;2023-01-20T01:13:10;9.45;;;4.55;;
71351;SDS011;59159;51.652;4.864;2023-01-20T01:15:36;10.82;;;4.20;;
71351;SDS011;59159;51.652;4.864;2023-01-20T01:18:02;10.13;;;4.80;;
71351;SDS011;59159;51.652;4.864;2023-01-20T01:20:28;11.48;;;4.85;;
71351;SDS011;59159;51.652;4.864;2023-01-20T01:22:54;9.57;;;4.70;;
71351;SDS011;59159;51.652;4.864;2023-01-20T01:25:20;10.90;;;4.97;;
71351;SDS011;59159;51.652;4.864;2023-01-20T01:27:46;11.17;;;5.23;;
71351;SDS011;59159;51.652;4.864;2023-01-20T01:30:12;10.27;;;4.93;;
71351;SDS011;59159;51.652;4.864;2023-01-20T01:32:38;10.88;;;5.07;;
71351;SDS011;59159;51.652;4.864;2023-01-20T01:35:05;13.33;;;5.00;;
71351;SDS011;59159;51.652;4.864;2023-01-20T01:37:31;10.85;;;4.88;;
71351;SDS011;59159;51.652;4.864;2023-01-20T01:39:57;11.90;;;5.25;;
71351;SDS011;59159;51.652;4.864;2023-01-20T01:42:23;12.07;;;5.13;;
71351;SDS011;59159;51.652;4.864;2023-01-20T01:47:38;11.63;;;5.32;;
71351;SDS011;59159;51.652;4.864;2023-01-20T01:50:05;12.30;;;5.38;;
71351;SDS011;59159;51.652;4.864;2023-01-20T01:52:31;11.17;;;4.70;;
71351;SDS011;59159;51.652;4.864;2023-01-20T01:54:57;12.18;;;4.90;;
71351;SDS011;59159;51.652;4.864;2023-01-20T01:57:24;12.30;;;5.70;;
71351;SDS011;59159;51.652;4.864;2023-01-20T01:59:50;11.23;;;5.40;;
71351;SDS011;59159;51.652;4.864;2023-01-20T02:02:16;9.98;;;4.85;;
71351;SDS011;59159;51.652;4.864;2023-01-20T02:04:42;12.88;;;4.72;;
71351;SDS011;59159;51.652;4.864;2023-01-20T02:07:12;11.07;;;5.40;;
71351;SDS011;59159;51.652;4.864;2023-01-20T02:09:42;13.43;;;6.00;;
71351;SDS011;59159;51.652;4.864;2023-01-20T02:12:09;12.07;;;4.78;;
71351;SDS011;59159;51.652;4.864;2023-01-20T02:14:37;12.70;;;5.40;;
71351;SDS011;59159;51.652;4.864;2023-01-20T02:22:11;12.25;;;5.63;;
71351;SDS011;59159;51.652;4.864;2023-01-20T02:24:58;11.87;;;4.57;;
71351;SDS011;59159;51.652;4.864;2023-01-20T02:40:42;11.30;;;5.05;;
71351;SDS011;59159;51.652;4.864;2023-01-20T02:43:16;11.37;;;5.50;;
71351;SDS011;59159;51.652;4.864;2023-01-20T02:45:44;12.55;;;5.50;;
71351;SDS011;59159;51.652;4.864;2023-01-20T02:48:14;12.68;;;5.45;;
71351;SDS011;59159;51.652;4.864;2023-01-20T02:50:44;11.50;;;5.43;;
71351;SDS011;59159;51.652;4.864;2023-01-20T02:53:11;11.88;;;5.65;;
71351;SDS011;59159;51.652;4.864;2023-01-20T02:55:40;12.40;;;5.40;;
71351;SDS011;59159;51.652;4.864;2023-01-20T02:58:12;12.53;;;5.70;;
71351;SDS011;59159;51.652;4.864;2023-01-20T03:00:47;12.98;;;5.72;;
71351;SDS011;59159;51.652;4.864;2023-01-20T03:03:15;11.38;;;5.32;;
71351;SDS011;59159;51.652;4.864;2023-01-20T03:05:44;13.05;;;6.60;;
71351;SDS011;59159;51.652;4.864;2023-01-20T03:08:13;11.87;;;5.43;;
71351;SDS011;59159;51.652;4.864;2023-01-20T03:10:41;12.88;;;5.47;;
71351;SDS011;59159;51.652;4.864;2023-01-20T03:15:47;11.37;;;5.37;;
71351;SDS011;59159;51.652;4.864;2023-01-20T03:18:16;12.00;;;6.03;;
71351;SDS011;59159;51.652;4.864;2023-01-20T03:20:42;12.77;;;6.22;;
71351;SDS011;59159;51.652;4.864;2023-01-20T03:23:08;13.40;;;6.10;;
71351;SDS011;59159;51.652;4.864;2023-01-20T03:25:35;12.63;;;6.30;;
71351;SDS011;59159;51.652;4.864;2023-01-20T03:30:15;13.40;;;5.90;;
71351;SDS011;59159;51.652;4.864;2023-01-20T03:32:42;13.60;;;6.00;;
71351;SDS011;59159;51.652;4.864;2023-01-20T03:35:10;14.80;;;6.63;;
71351;SDS011;59159;51.652;4.864;2023-01-20T03:37:36;13.02;;;6.25;;
71351;SDS011;59159;51.652;4.864;2023-01-20T03:40:02;12.87;;;6.33;;
71351;SDS011;59159;51.652;4.864;2023-01-20T03:42:30;13.07;;;6.18;;
71351;SDS011;59159;51.652;4.864;2023-01-20T03:45:05;13.27;;;5.95;;
71351;SDS011;59159;51.652;4.864;2023-01-20T03:47:37;12.93;;;6.60;;
71351;SDS011;59159;51.652;4.864;2023-01-20T03:50:09;13.50;;;6.50;;
71351;SDS011;59159;51.652;4.864;2023-01-20T03:52:40;13.93;;;6.90;;
71351;SDS011;59159;51.652;4.864;2023-01-20T03:55:19;14.13;;;6.25;;
71351;SDS011;59159;51.652;4.864;2023-01-20T03:58:03;13.30;;;5.87;;
71351;SDS011;59159;51.652;4.864;2023-01-20T04:00:32;14.63;;;6.82;;
71351;SDS011;59159;51.652;4.864;2023-01-20T04:03:01;13.75;;;6.38;;
71351;SDS011;59159;51.652;4.864;2023-01-20T04:05:27;14.83;;;6.70;;
71351;SDS011;59159;51.652;4.864;2023-01-20T04:07:57;13.32;;;6.78;;
71351;SDS011;59159;51.652;4.864;2023-01-20T04:10:24;13.82;;;6.38;;
71351;SDS011;59159;51.652;4.864;2023-01-20T04:12:51;13.20;;;7.13;;
71351;SDS011;59159;51.652;4.864;2023-01-20T04:15:18;13.07;;;6.60;;
71351;SDS011;59159;51.652;4.864;2023-01-20T04:17:45;16.27;;;7.40;;
71351;SDS011;59159;51.652;4.864;2023-01-20T04:20:11;17.40;;;7.25;;
71351;SDS011;59159;51.652;4.864;2023-01-20T04:22:40;14.83;;;6.67;;
71351;SDS011;59159;51.652;4.864;2023-01-20T04:25:30;14.00;;;6.65;;
71351;SDS011;59159;51.652;4.864;2023-01-20T04:27:54;14.63;;;6.78;;
71351;SDS011;59159;51.652;4.864;2023-01-20T04:30:21;16.93;;;6.60;;
71351;SDS011;59159;51.652;4.864;2023-01-20T04:32:46;14.23;;;6.40;;
71351;SDS011;59159;51.652;4.864;2023-01-20T04:35:13;14.18;;;6.63;;
71351;SDS011;59159;51.652;4.864;2023-01-20T04:37:40;15.98;;;7.28;;
71351;SDS011;59159;51.652;4.864;2023-01-20T04:40:07;15.00;;;6.93;;
71351;SDS011;59159;51.652;4.864;2023-01-20T04:42:33;14.50;;;7.00;;
71351;SDS011;59159;51.652;4.864;2023-01-20T04:44:59;14.00;;;6.75;;
71351;SDS011;59159;51.652;4.864;2023-01-20T04:47:25;13.37;;;6.73;;
71351;SDS011;59159;51.652;4.864;2023-01-20T04:49:54;15.27;;;7.20;;
71351;SDS011;59159;51.652;4.864;2023-01-20T04:52:20;16.02;;;7.82;;
71351;SDS011;59159;51.652;4.864;2023-01-20T04:54:46;16.10;;;7.47;;
71351;SDS011;59159;51.652;4.864;2023-01-20T04:57:12;19.08;;;7.60;;
71351;SDS011;59159;51.652;4.864;2023-01-20T04:59:38;15.25;;;8.35;;
71351;SDS011;59159;51.652;4.864;2023-01-20T05:02:04;17.35;;;8.77;;
71351;SDS011;59159;51.652;4.864;2023-01-20T05:04:30;16.63;;;8.47;;
71351;SDS011;59159;51.652;4.864;2023-01-20T05:06:56;16.23;;;7.78;;
71351;SDS011;59159;51.652;4.864;2023-01-20T05:09:22;18.15;;;8.25;;
71351;SDS011;59159;51.652;4.864;2023-01-20T05:11:47;18.07;;;7.90;;
71351;SDS011;59159;51.652;4.864;2023-01-20T05:14:13;17.00;;;8.15;;
71351;SDS011;59159;51.652;4.864;2023-01-20T05:16:39;20.63;;;9.05;;
71351;SDS011;59159;51.652;4.864;2023-01-20T05:19:05;17.00;;;7.77;;
71351;SDS011;59159;51.652;4.864;2023-01-20T05:21:31;18.30;;;8.73;;
71351;SDS011;59159;51.652;4.864;2023-01-20T05:23:58;17.70;;;8.27;;
71351;SDS011;59159;51.652;4.864;2023-01-20T05:26:24;15.75;;;8.10;;
71351;SDS011;59159;51.652;4.864;2023-01-20T05:28:50;17.90;;;8.40;;
71351;SDS011;59159;51.652;4.864;2023-01-20T05:31:16;19.10;;;8.90;;
71351;SDS011;59159;51.652;4.864;2023-01-20T05:33:42;18.90;;;8.45;;
71351;SDS011;59159;51.652;4.864;2023-01-20T05:36:09;16.07;;;8.10;;
71351;SDS011;59159;51.652;4.864;2023-01-20T05:38:36;18.27;;;8.88;;
71351;SDS011;59159;51.652;4.864;2023-01-20T05:41:03;17.10;;;7.88;;
71351;SDS011;59159;51.652;4.864;2023-01-20T05:43:30;17.93;;;7.93;;
71351;SDS011;59159;51.652;4.864;2023-01-20T05:45:56;18.40;;;8.48;;
71351;SDS011;59159;51.652;4.864;2023-01-20T05:48:22;18.67;;;8.50;;
71351;SDS011;59159;51.652;4.864;2023-01-20T05:50:48;14.18;;;7.70;;
71351;SDS011;59159;51.652;4.864;2023-01-20T05:53:14;13.73;;;6.83;;
71351;SDS011;59159;51.652;4.864;2023-01-20T05:55:40;15.55;;;7.53;;
71351;SDS011;59159;51.652;4.864;2023-01-20T05:58:06;17.45;;;7.95;;
71351;SDS011;59159;51.652;4.864;2023-01-20T06:00:32;14.87;;;6.87;;
71351;SDS011;59159;51.652;4.864;2023-01-20T06:02:58;15.38;;;7.45;;
71351;SDS011;59159;51.652;4.864;2023-01-20T06:05:26;15.00;;;7.32;;
71351;SDS011;59159;51.652;4.864;2023-01-20T06:07:55;13.87;;;6.87;;
71351;SDS011;59159;51.652;4.864;2023-01-20T06:10:21;15.10;;;6.95;;
71351;SDS011;59159;51.652;4.864;2023-01-20T06:12:52;12.27;;;6.50;;
71351;SDS011;59159;51.652;4.864;2023-01-20T06:15:19;14.27;;;6.97;;
71351;SDS011;59159;51.652;4.864;2023-01-20T06:17:45;13.03;;;6.60;;
71351;SDS011;59159;51.652;4.864;2023-01-20T06:20:11;14.20;;;6.57;;
71351;SDS011;59159;51.652;4.864;2023-01-20T06:22:37;13.27;;;6.13;;
71351;SDS011;59159;51.652;4.864;2023-01-20T06:25:03;12.83;;;5.87;;
71351;SDS011;59159;51.652;4.864;2023-01-20T06:27:29;14.10;;;6.43;;
71351;SDS011;59159;51.652;4.864;2023-01-20T06:29:55;13.43;;;5.93;;
71351;SDS011;59159;51.652;4.864;2023-01-20T06:32:21;13.83;;;6.00;;
71351;SDS011;59159;51.652;4.864;2023-01-20T06:34:47;10.85;;;5.53;;
71351;SDS011;59159;51.652;4.864;2023-01-20T06:37:13;10.30;;;5.13;;
71351;SDS011;59159;51.652;4.864;2023-01-20T06:39:39;11.98;;;5.70;;
71351;SDS011;59159;51.652;4.864;2023-01-20T06:42:05;11.70;;;5.70;;
71351;SDS011;59159;51.652;4.864;2023-01-20T06:44:31;11.52;;;5.55;;
71351;SDS011;59159;51.652;4.864;2023-01-20T06:47:00;13.40;;;5.60;;
71351;SDS011;59159;51.652;4.864;2023-01-20T06:49:26;12.63;;;5.13;;
71351;SDS011;59159;51.652;4.864;2023-01-20T06:51:52;11.50;;;5.22;;
71351;SDS011;59159;51.652;4.864;2023-01-20T06:54:19;10.70;;;4.93;;
71351;SDS011;59159;51.652;4.864;2023-01-20T06:56:45;11.03;;;5.60;;
71351;SDS011;59159;51.652;4.864;2023-01-20T06:59:11;11.35;;;4.65;;
71351;SDS011;59159;51.652;4.864;2023-01-20T07:01:37;10.18;;;4.63;;
71351;SDS011;59159;51.652;4.864;2023-01-20T07:04:03;10.80;;;4.78;;
71351;SDS011;59159;51.652;4.864;2023-01-20T07:06:30;11.70;;;5.27;;
71351;SDS011;59159;51.652;4.864;2023-01-20T07:08:57;9.98;;;4.55;;
71351;SDS011;59159;51.652;4.864;2023-01-20T07:11:23;11.02;;;4.63;;
71351;SDS011;59159;51.652;4.864;2023-01-20T07:13:49;10.23;;;4.77;;
71351;SDS011;59159;51.652;4.864;2023-01-20T07:16:15;11.43;;;4.43;;
71351;SDS011;59159;51.652;4.864;2023-01-20T07:18:42;10.45;;;4.85;;
71351;SDS011;59159;51.652;4.864;2023-01-20T07:21:09;11.27;;;4.83;;
71351;SDS011;59159;51.652;4.864;2023-01-20T07:23:36;11.13;;;4.63;;
71351;SDS011;59159;51.652;4.864;2023-01-20T07:26:05;9.25;;;4.43;;
71351;SDS011;59159;51.652;4.864;2023-01-20T07:28:32;9.48;;;4.32;;
71351;SDS011;59159;51.652;4.864;2023-01-20T07:31:06;12.33;;;4.83;;
71351;SDS011;59159;51.652;4.864;2023-01-20T07:33:32;10.30;;;5.15;;
71351;SDS011;59159;51.652;4.864;2023-01-20T07:35:59;10.10;;;4.07;;
71351;SDS011;59159;51.652;4.864;2023-01-20T07:38:26;10.53;;;4.53;;
71351;SDS011;59159;51.652;4.864;2023-01-20T07:40:52;10.07;;;4.13;;
71351;SDS011;59159;51.652;4.864;2023-01-20T07:43:17;10.13;;;4.07;;
71351;SDS011;59159;51.652;4.864;2023-01-20T07:45:43;11.27;;;5.40;;
71351;SDS011;59159;51.652;4.864;2023-01-20T07:48:09;8.32;;;3.75;;
71351;SDS011;59159;51.652;4.864;2023-01-20T07:50:36;9.60;;;4.28;;
71351;SDS011;59159;51.652;4.864;2023-01-20T07:53:02;8.88;;;3.83;;
71351;SDS011;59159;51.652;4.864;2023-01-20T07:55:28;8.40;;;3.83;;
71351;SDS011;59159;51.652;4.864;2023-01-20T07:57:54;9.90;;;3.95;;
71351;SDS011;59159;51.652;4.864;2023-01-20T08:00:20;9.85;;;3.97;;
71351;SDS011;59159;51.652;4.864;2023-01-20T08:02:46;8.53;;;3.20;;
71351;SDS011;59159;51.652;4.864;2023-01-20T08:05:12;9.40;;;3.95;;
71351;SDS011;59159;51.652;4.864;2023-01-20T08:07:38;9.45;;;4.13;;
71351;SDS011;59159;51.652;4.864;2023-01-20T08:10:05;6.97;;;3.67;;
71351;SDS011;59159;51.652;4.864;2023-01-20T08:12:31;7.78;;;3.53;;
71351;SDS011;59159;51.652;4.864;2023-01-20T08:14:57;9.38;;;3.75;;
71351;SDS011;59159;51.652;4.864;2023-01-20T08:17:23;8.30;;;3.80;;
71351;SDS011;59159;51.652;4.864;2023-01-20T08:19:49;9.20;;;3.73;;
71351;SDS011;59159;51.652;4.864;2023-01-20T08:22:15;7.75;;;3.50;;
71351;SDS011;59159;51.652;4.864;2023-01-20T08:24:41;9.75;;;3.80;;
71351;SDS011;59159;51.652;4.864;2023-01-20T08:27:07;9.17;;;3.40;;
71351;SDS011;59159;51.652;4.864;2023-01-20T08:29:33;7.65;;;3.40;;
71351;SDS011;59159;51.652;4.864;2023-01-20T08:31:59;7.97;;;3.55;;
71351;SDS011;59159;51.652;4.864;2023-01-20T08:34:26;7.67;;;3.30;;
71351;SDS011;59159;51.652;4.864;2023-01-20T08:36:52;8.20;;;3.50;;
71351;SDS011;59159;51.652;4.864;2023-01-20T08:39:21;8.05;;;3.53;;
71351;SDS011;59159;51.652;4.864;2023-01-20T08:41:48;8.18;;;3.20;;
71351;SDS011;59159;51.652;4.864;2023-01-20T08:44:14;8.17;;;3.33;;
71351;SDS011;59159;51.652;4.864;2023-01-20T08:46:40;8.48;;;3.60;;
71351;SDS011;59159;51.652;4.864;2023-01-20T08:49:07;7.30;;;2.97;;
71351;SDS011;59159;51.652;4.864;2023-01-20T08:51:33;7.87;;;3.20;;
71351;SDS011;59159;51.652;4.864;2023-01-20T08:54:00;8.52;;;3.00;;
71351;SDS011;59159;51.652;4.864;2023-01-20T08:56:26;8.43;;;3.10;;
71351;SDS011;59159;51.652;4.864;2023-01-20T08:58:52;7.73;;;2.87;;
71351;SDS011;59159;51.652;4.864;2023-01-20T09:01:19;7.05;;;2.97;;
71351;SDS011;59159;51.652;4.864;2023-01-20T09:03:46;7.43;;;2.40;;
71351;SDS011;59159;51.652;4.864;2023-01-20T09:06:13;7.75;;;3.13;;
71351;SDS011;59159;51.652;4.864;2023-01-20T09:08:39;7.57;;;3.07;;
71351;SDS011;59159;51.652;4.864;2023-01-20T09:11:06;7.10;;;2.83;;
71351;SDS011;59159;51.652;4.864;2023-01-20T09:13:32;6.65;;;2.65;;
71351;SDS011;59159;51.652;4.864;2023-01-20T09:15:58;6.43;;;2.70;;
71351;SDS011;59159;51.652;4.864;2023-01-20T09:18:24;6.45;;;2.50;;
71351;SDS011;59159;51.652;4.864;2023-01-20T09:20:53;6.03;;;3.10;;
71351;SDS011;59159;51.652;4.864;2023-01-20T09:23:21;6.40;;;2.90;;
71351;SDS011;59159;51.652;4.864;2023-01-20T09:25:47;6.45;;;2.80;;
71351;SDS011;59159;51.652;4.864;2023-01-20T09:28:13;7.95;;;3.00;;
71351;SDS011;59159;51.652;4.864;2023-01-20T09:30:39;7.47;;;2.50;;
71351;SDS011;59159;51.652;4.864;2023-01-20T09:33:06;6.87;;;2.73;;
71351;SDS011;59159;51.652;4.864;2023-01-20T09:35:32;6.85;;;2.75;;
71351;SDS011;59159;51.652;4.864;2023-01-20T09:37:58;6.75;;;2.67;;
71351;SDS011;59159;51.652;4.864;2023-01-20T09:51:44;7.10;;;2.65;;
71351;SDS011;59159;51.652;4.864;2023-01-20T09:54:33;5.60;;;2.22;;
71351;SDS011;59159;51.652;4.864;2023-01-20T09:57:01;6.65;;;2.83;;
71351;SDS011;59159;51.652;4.864;2023-01-20T09:59:31;5.43;;;2.20;;
71351;SDS011;59159;51.652;4.864;2023-01-20T10:01:59;6.80;;;2.90;;
71351;SDS011;59159;51.652;4.864;2023-01-20T10:04:30;6.30;;;2.58;;
71351;SDS011;59159;51.652;4.864;2023-01-20T10:07:01;6.60;;;2.53;;
71351;SDS011;59159;51.652;4.864;2023-01-20T10:09:42;5.82;;;2.53;;
71351;SDS011;59159;51.652;4.864;2023-01-20T10:12:27;6.35;;;2.55;;
71351;SDS011;59159;51.652;4.864;2023-01-20T10:15:08;6.90;;;2.50;;
71351;SDS011;59159;51.652;4.864;2023-01-20T10:22:51;5.95;;;2.40;;
71351;SDS011;59159;51.652;4.864;2023-01-20T10:25:22;6.47;;;2.50;;
71351;SDS011;59159;51.652;4.864;2023-01-20T10:27:54;5.93;;;2.60;;
71351;SDS011;59159;51.652;4.864;2023-01-20T10:30:22;6.57;;;2.78;;
71351;SDS011;59159;51.652;4.864;2023-01-20T10:32:53;6.20;;;2.77;;
71351;SDS011;59159;51.652;4.864;2023-01-20T10:35:22;7.28;;;2.72;;
71351;SDS011;59159;51.652;4.864;2023-01-20T10:37:50;6.40;;;2.67;;
71351;SDS011;59159;51.652;4.864;2023-01-20T10:42:45;6.00;;;2.63;;
71351;SDS011;59159;51.652;4.864;2023-01-20T10:45:16;6.30;;;2.90;;
71351;SDS011;59159;51.652;4.864;2023-01-20T10:47:46;6.10;;;2.42;;
71351;SDS011;59159;51.652;4.864;2023-01-20T10:57:47;6.13;;;2.40;;
71351;SDS011;59159;51.652;4.864;2023-01-20T11:00:15;6.95;;;2.50;;
71351;SDS011;59159;51.652;4.864;2023-01-20T11:02:44;6.45;;;3.08;;
71351;SDS011;59159;51.652;4.864;2023-01-20T11:05:15;6.00;;;2.67;;
71351;SDS011;59159;51.652;4.864;2023-01-20T11:07:41;6.88;;;2.40;;
71351;SDS011;59159;51.652;4.864;2023-01-20T11:10:15;6.35;;;2.60;;
71351;SDS011;59159;51.652;4.864;2023-01-20T11:12:42;5.72;;;2.40;;
71351;SDS011;59159;51.652;4.864;2023-01-20T11:15:16;5.97;;;2.60;;
71351;SDS011;59159;51.652;4.864;2023-01-20T11:17:42;6.60;;;2.65;;
71351;SDS011;59159;51.652;4.864;2023-01-20T11:20:12;5.88;;;2.40;;
71351;SDS011;59159;51.652;4.864;2023-01-20T11:22:43;6.07;;;2.47;;
71351;SDS011;59159;51.652;4.864;2023-01-20T11:25:11;6.38;;;2.67;;
71351;SDS011;59159;51.652;4.864;2023-01-20T11:27:45;6.40;;;2.78;;
71351;SDS011;59159;51.652;4.864;2023-01-20T11:33:05;7.68;;;3.10;;
71351;SDS011;59159;51.652;4.864;2023-01-20T11:35:31;7.00;;;3.03;;
71351;SDS011;59159;51.652;4.864;2023-01-20T11:37:58;6.97;;;2.97;;
71351;SDS011;59159;51.652;4.864;2023-01-20T11:40:26;5.97;;;2.67;;
71351;SDS011;59159;51.652;4.864;2023-01-20T11:42:53;6.10;;;2.65;;
71351;SDS011;59159;51.652;4.864;2023-01-20T11:48:01;6.87;;;2.70;;
71351;SDS011;59159;51.652;4.864;2023-01-20T11:50:37;6.80;;;2.65;;
71351;SDS011;59159;51.652;4.864;2023-01-20T11:53:20;5.65;;;2.42;;
71351;SDS011;59159;51.652;4.864;2023-01-20T11:55:48;6.70;;;2.77;;
71351;SDS011;59159;51.652;4.864;2023-01-20T11:58:16;7.05;;;2.60;;
71351;SDS011;59159;51.652;4.864;2023-01-20T12:00:42;6.63;;;2.70;;
71351;SDS011;59159;51.652;4.864;2023-01-20T12:05:38;6.03;;;3.00;;
71351;SDS011;59159;51.652;4.864;2023-01-20T12:08:20;6.63;;;3.20;;
71351;SDS011;59159;51.652;4.864;2023-01-20T12:10:48;7.28;;;3.00;;
71351;SDS011;59159;51.652;4.864;2023-01-20T12:13:18;6.87;;;2.80;;
71351;SDS011;59159;51.652;4.864;2023-01-20T12:15:46;7.07;;;2.47;;
71351;SDS011;59159;51.652;4.864;2023-01-20T12:20:54;6.73;;;2.70;;
71351;SDS011;59159;51.652;4.864;2023-01-20T12:23:32;7.10;;;2.63;;
71351;SDS011;59159;51.652;4.864;2023-01-20T12:26:03;6.40;;;2.85;;
71351;SDS011;59159;51.652;4.864;2023-01-20T12:30:59;6.07;;;2.77;;
71351;SDS011;59159;51.652;4.864;2023-01-20T12:33:27;6.78;;;2.45;;
71351;SDS011;59159;51.652;4.864;2023-01-20T12:38:20;6.17;;;2.30;;
71351;SDS011;59159;51.652;4.864;2023-01-20T12:40:47;6.30;;;2.40;;
71351;SDS011;59159;51.652;4.864;2023-01-20T12:43:17;6.35;;;2.92;;
71351;SDS011;59159;51.652;4.864;2023-01-20T12:53:50;6.63;;;2.22;;
71351;SDS011;59159;51.652;4.864;2023-01-20T13:09:35;7.10;;;2.45;;
71351;SDS011;59159;51.652;4.864;2023-01-20T13:12:11;5.93;;;2.33;;
71351;SDS011;59159;51.652;4.864;2023-01-20T13:14:43;7.18;;;2.53;;
71351;SDS011;59159;51.652;4.864;2023-01-20T13:19:44;5.63;;;2.00;;
71351;SDS011;59159;51.652;4.864;2023-01-20T13:22:19;6.93;;;2.20;;
71351;SDS011;59159;51.652;4.864;2023-01-20T13:24:55;5.28;;;2.08;;
71351;SDS011;59159;51.652;4.864;2023-01-20T13:29:52;5.83;;;2.00;;
71351;SDS011;59159;51.652;4.864;2023-01-20T13:32:32;5.38;;;2.00;;
71351;SDS011;59159;51.652;4.864;2023-01-20T13:34:59;4.75;;;1.73;;
71351;SDS011;59159;51.652;4.864;2023-01-20T13:37:29;5.53;;;1.97;;
71351;SDS011;59159;51.652;4.864;2023-01-20T13:39:57;5.65;;;1.80;;
71351;SDS011;59159;51.652;4.864;2023-01-20T13:50:19;6.07;;;1.88;;
71351;SDS011;59159;51.652;4.864;2023-01-20T13:55:58;5.10;;;1.50;;
71351;SDS011;59159;51.652;4.864;2023-01-20T13:58:18;6.15;;;1.70;;
71351;SDS011;59159;51.652;4.864;2023-01-20T14:00:45;4.97;;;1.70;;
71351;SDS011;59159;51.652;4.864;2023-01-20T14:05:51;5.20;;;1.73;;
71351;SDS011;59159;51.652;4.864;2023-01-20T14:08:18;5.07;;;1.70;;
71351;SDS011;59159;51.652;4.864;2023-01-20T14:10:44;5.53;;;1.77;;
71351;SDS011;59159;51.652;4.864;2023-01-20T14:13:11;5.57;;;2.10;;
71351;SDS011;59159;51.652;4.864;2023-01-20T14:15:38;5.65;;;1.70;;
71351;SDS011;59159;51.652;4.864;2023-01-20T14:18:10;5.28;;;1.60;;
71351;SDS011;59159;51.652;4.864;2023-01-20T14:20:38;5.17;;;1.30;;
71351;SDS011;59159;51.652;4.864;2023-01-20T14:26:00;4.70;;;1.60;;
71351;SDS011;59159;51.652;4.864;2023-01-20T14:28:26;4.23;;;1.60;;
71351;SDS011;59159;51.652;4.864;2023-01-20T14:36:12;4.45;;;1.55;;
71351;SDS011;59159;51.652;4.864;2023-01-20T14:38:39;5.27;;;1.30;;
71351;SDS011;59159;51.652;4.864;2023-01-20T14:41:20;4.70;;;1.75;;
71351;SDS011;59159;51.652;4.864;2023-01-20T14:43:46;7.07;;;1.80;;
71351;SDS011;59159;51.652;4.864;2023-01-20T14:46:12;4.63;;;1.70;;
71351;SDS011;59159;51.652;4.864;2023-01-20T14:48:38;5.03;;;1.70;;
71351;SDS011;59159;51.652;4.864;2023-01-20T14:51:06;5.25;;;1.75;;
71351;SDS011;59159;51.652;4.864;2023-01-20T14:53:32;5.00;;;1.53;;
71351;SDS011;59159;51.652;4.864;2023-01-20T14:55:59;4.55;;;1.65;;
71351;SDS011;59159;51.652;4.864;2023-01-20T14:58:26;4.25;;;1.20;;
71351;SDS011;59159;51.652;4.864;2023-01-20T15:00:57;4.10;;;1.50;;
71351;SDS011;59159;51.652;4.864;2023-01-20T15:03:25;4.70;;;1.70;;
71351;SDS011;59159;51.652;4.864;2023-01-20T15:16:22;12.18;;;5.65;;
71351;SDS011;59159;51.652;4.864;2023-01-20T15:21:33;9.60;;;4.25;;
71351;SDS011;59159;51.652;4.864;2023-01-20T15:24:11;9.07;;;4.40;;
71351;SDS011;59159;51.652;4.864;2023-01-20T15:26:37;11.00;;;4.10;;
71351;SDS011;59159;51.652;4.864;2023-01-20T15:31:48;8.02;;;3.60;;
71351;SDS011;59159;51.652;4.864;2023-01-20T15:34:15;6.50;;;3.13;;
71351;SDS011;59159;51.652;4.864;2023-01-20T15:36:42;8.77;;;3.13;;
71351;SDS011;59159;51.652;4.864;2023-01-20T15:39:11;8.55;;;2.95;;
71351;SDS011;59159;51.652;4.864;2023-01-20T15:41:37;7.82;;;2.92;;
71351;SDS011;59159;51.652;4.864;2023-01-20T15:44:04;6.63;;;2.67;;
71351;SDS011;59159;51.652;4.864;2023-01-20T15:46:30;7.28;;;2.92;;
71351;SDS011;59159;51.652;4.864;2023-01-20T15:48:55;7.32;;;2.75;;
71351;SDS011;59159;51.652;4.864;2023-01-20T15:51:21;7.15;;;2.53;;
71351;SDS011;59159;51.652;4.864;2023-01-20T15:53:47;6.27;;;2.47;;
71351;SDS011;59159;51.652;4.864;2023-01-20T15:58:39;7.60;;;2.60;;
71351;SDS011;59159;51.652;4.864;2023-01-20T16:01:05;7.03;;;2.70;;
71351;SDS011;59159;51.652;4.864;2023-01-20T16:03:31;6.25;;;2.25;;
71351;SDS011;59159;51.652;4.864;2023-01-20T16:05:59;6.18;;;2.00;;
71351;SDS011;59159;51.652;4.864;2023-01-20T16:08:28;6.10;;;2.00;;
71351;SDS011;59159;51.652;4.864;2023-01-20T16:10:58;5.47;;;2.28;;
71351;SDS011;59159;51.652;4.864;2023-01-20T16:13:24;7.00;;;2.25;;
71351;SDS011;59159;51.652;4.864;2023-01-20T16:15:50;6.90;;;2.67;;
71351;SDS011;59159;51.652;4.864;2023-01-20T16:18:16;5.70;;;2.23;;
71351;SDS011;59159;51.652;4.864;2023-01-20T16:20:44;6.85;;;2.35;;
71351;SDS011;59159;51.652;4.864;2023-01-20T16:23:10;5.45;;;2.08;;
71351;SDS011;59159;51.652;4.864;2023-01-20T16:25:37;6.77;;;2.30;;
71351;SDS011;59159;51.652;4.864;2023-01-20T16:28:25;5.78;;;2.20;;
71351;SDS011;59159;51.652;4.864;2023-01-20T16:30:50;6.80;;;2.40;;
71351;SDS011;59159;51.652;4.864;2023-01-20T16:33:24;8.47;;;2.43;;
71351;SDS011;59159;51.652;4.864;2023-01-20T16:35:52;5.95;;;2.20;;
71351;SDS011;59159;51.652;4.864;2023-01-20T16:38:19;5.95;;;1.92;;
71351;SDS011;59159;51.652;4.864;2023-01-20T16:40:52;4.57;;;1.80;;
71351;SDS011;59159;51.652;4.864;2023-01-20T16:43:20;4.83;;;1.80;;
71351;SDS011;59159;51.652;4.864;2023-01-20T16:45:47;5.95;;;2.30;;
71351;SDS011;59159;51.652;4.864;2023-01-20T16:48:16;4.88;;;1.73;;
71351;SDS011;59159;51.652;4.864;2023-01-20T16:50:42;6.07;;;2.20;;
71351;SDS011;59159;51.652;4.864;2023-01-20T16:53:09;5.95;;;1.95;;
71351;SDS011;59159;51.652;4.864;2023-01-20T16:55:35;7.35;;;2.40;;
71351;SDS011;59159;51.652;4.864;2023-01-20T16:58:01;5.17;;;2.30;;
71351;SDS011;59159;51.652;4.864;2023-01-20T17:00:28;5.28;;;1.80;;